createdAt,value
2023-12-03T00:01:54.229Z,99202.00
2023-12-03T00:04:22.319Z,99195.56
2023-12-03T00:06:50.308Z,99200.94
2023-12-03T00:09:18.542Z,99195.81
2023-12-03T00:11:46.570Z,99200.41
2023-12-03T00:14:15.731Z,99199.34
2023-12-03T00:16:43.530Z,99201.75
2023-12-03T00:19:11.428Z,99196.91
2023-12-03T00:21:39.343Z,99202.03
2023-12-03T00:24:07.744Z,99193.66
2023-12-03T00:26:35.613Z,99198.81
2023-12-03T00:29:03.914Z,99203.66
2023-12-03T00:31:34.731Z,99204.69
2023-12-03T00:34:04.143Z,99209.28
2023-12-03T00:36:35.291Z,99202.28
2023-12-03T00:39:04.017Z,99201.47
2023-12-03T00:41:31.830Z,99210.38
2023-12-03T00:43:59.898Z,99199.84
2023-12-03T00:46:27.705Z,99205.53
2023-12-03T00:48:57.003Z,99212.84
2023-12-03T00:51:24.890Z,99216.06
2023-12-03T00:53:52.685Z,99217.97
2023-12-03T00:56:20.511Z,99212.56
2023-12-03T00:58:48.347Z,99210.41
2023-12-03T01:01:16.143Z,99209.81
2023-12-03T01:03:43.982Z,99208.50
2023-12-03T01:06:13.195Z,99217.97
2023-12-03T01:08:41.027Z,99217.44
2023-12-03T01:11:09.253Z,99217.44
2023-12-03T01:13:37.109Z,99217.44
2023-12-03T01:16:05.571Z,99218.22
2023-12-03T01:18:33.485Z,99220.59
2023-12-03T01:21:01.311Z,99234.41
2023-12-03T01:23:30.516Z,99236.03
2023-12-03T01:25:58.601Z,99234.69
2023-12-03T01:28:26.416Z,99245.47
2023-12-03T01:30:54.663Z,99253.34
2023-12-03T01:33:22.610Z,99243.88
2023-12-03T01:35:50.547Z,99251.81
2023-12-03T01:38:18.375Z,99250.97
2023-12-03T01:40:54.405Z,99255.88
2023-12-03T01:43:22.279Z,99262.34
2023-12-03T01:45:50.229Z,99262.94
2023-12-03T01:48:18.534Z,99269.31
2023-12-03T01:50:46.944Z,99276.69
2023-12-03T01:53:18.044Z,99273.19
2023-12-03T01:55:45.884Z,99272.22
2023-12-03T01:58:15.374Z,99278.91
2023-12-03T02:00:43.604Z,99270.50
2023-12-03T02:03:17.614Z,99277.63
2023-12-03T02:05:50.273Z,99284.78
2023-12-03T02:08:18.187Z,99273.13
2023-12-03T02:10:46.124Z,99272.41
2023-12-03T02:13:15.503Z,99265.34
2023-12-03T02:15:43.399Z,99271.81
2023-12-03T02:18:11.404Z,99266.75
2023-12-03T02:20:39.294Z,99275.69
2023-12-03T02:23:08.963Z,99269.44
2023-12-03T02:25:36.695Z,99274.03
2023-12-03T02:28:04.500Z,99281.56
2023-12-03T02:30:32.306Z,99276.56
2023-12-03T02:33:00.128Z,99270.13
2023-12-03T02:35:28.127Z,99277.47
2023-12-03T02:37:55.902Z,99276.59
2023-12-03T02:40:25.035Z,99283.09
2023-12-03T02:42:52.778Z,99288.78
2023-12-03T02:45:20.788Z,99285.03
2023-12-03T02:47:48.721Z,99296.88
2023-12-03T02:50:16.737Z,99303.09
2023-12-03T02:52:44.557Z,99308.34
2023-12-03T02:55:12.394Z,99293.88
2023-12-03T02:57:41.661Z,99298.78
2023-12-03T03:00:10.426Z,99298.50
2023-12-03T03:02:38.997Z,99290.88
2023-12-03T03:05:07.864Z,99287.91
2023-12-03T03:07:35.698Z,99299.56
2023-12-03T03:10:03.979Z,99299.56
2023-12-03T03:12:31.842Z,99295.78
2023-12-03T03:15:01.002Z,99304.47
2023-12-03T03:17:28.777Z,99304.13
2023-12-03T03:19:56.712Z,99297.59
2023-12-03T03:22:24.457Z,99299.22
2023-12-03T03:24:53.693Z,99301.69
2023-12-03T03:27:21.594Z,99313.16
2023-12-03T03:29:49.434Z,99308.31
2023-12-03T03:32:18.687Z,99300.56
2023-12-03T03:34:46.629Z,99307.38
2023-12-03T03:37:14.516Z,99303.09
2023-12-03T03:39:42.408Z,99311.19
2023-12-03T03:42:10.275Z,99304.94
2023-12-03T03:44:38.465Z,99319.75
2023-12-03T03:47:06.332Z,99316.22
2023-12-03T03:49:35.562Z,99320.25
2023-12-03T03:52:03.974Z,99325.50
2023-12-03T03:54:31.800Z,99325.53
2023-12-03T03:56:59.725Z,99322.03
2023-12-03T03:59:27.937Z,99319.88
2023-12-03T04:01:55.731Z,99320.09
2023-12-03T04:04:23.536Z,99318.72
2023-12-03T04:06:52.699Z,99326.78
2023-12-03T04:09:20.570Z,99317.06
2023-12-03T04:11:48.972Z,99321.41
2023-12-03T04:14:17.908Z,99323.03
2023-12-03T04:16:46.712Z,99317.91
2023-12-03T04:19:14.706Z,99318.50
2023-12-03T04:21:42.702Z,99325.50
2023-12-03T04:24:11.910Z,99337.72
2023-12-03T04:26:43.205Z,99326.50
2023-12-03T04:29:11.016Z,99336.66
2023-12-03T04:31:38.781Z,99337.47
2023-12-03T04:34:06.792Z,99349.91
2023-12-03T04:36:34.771Z,99341.81
2023-12-03T04:39:02.676Z,99337.72
2023-12-03T04:41:37.138Z,99343.69
2023-12-03T04:44:05.673Z,99357.66
2023-12-03T04:46:33.716Z,99360.34
2023-12-03T04:49:01.618Z,99352.19
2023-12-03T04:51:29.540Z,99352.81
2023-12-03T04:53:57.340Z,99361.00
2023-12-03T04:56:25.093Z,99352.59
2023-12-03T04:58:54.428Z,99347.44
2023-12-03T05:01:22.258Z,99350.84
2023-12-03T05:03:50.196Z,99350.34
2023-12-03T05:06:18.125Z,99358.72
2023-12-03T05:08:45.933Z,99358.00
2023-12-03T05:11:13.715Z,99357.00
2023-12-03T05:13:41.518Z,99360.34
2023-12-03T05:16:11.806Z,99349.91
2023-12-03T05:18:39.620Z,99356.19
2023-12-03T05:21:09.184Z,99360.94
2023-12-03T05:23:37.013Z,99354.13
2023-12-03T05:26:04.945Z,99359.88
2023-12-03T05:28:32.706Z,99368.22
2023-12-03T05:31:00.493Z,99357.84
2023-12-03T05:33:29.723Z,99362.53
2023-12-03T05:35:57.654Z,99365.47
2023-12-03T05:38:25.514Z,99364.09
2023-12-03T05:40:53.350Z,99370.72
2023-12-03T05:43:21.147Z,99361.97
2023-12-03T05:45:49.030Z,99367.97
2023-12-03T05:48:17.821Z,99363.63
2023-12-03T05:50:47.019Z,99369.56
2023-12-03T05:53:14.792Z,99363.69
2023-12-03T05:55:42.638Z,99368.00
2023-12-03T05:58:10.538Z,99373.94
2023-12-03T06:00:38.313Z,99377.75
2023-12-03T06:03:06.088Z,99372.34
2023-12-03T06:05:34.210Z,99373.41
2023-12-03T06:08:03.407Z,99390.22
2023-12-03T06:10:32.112Z,99385.31
2023-12-03T06:12:59.951Z,99385.34
2023-12-03T06:15:27.831Z,99388.84
2023-12-03T06:17:55.677Z,99389.91
2023-12-03T06:20:23.531Z,99384.22
2023-12-03T06:22:51.389Z,99393.16
2023-12-03T06:25:20.755Z,99392.59
2023-12-03T06:27:48.659Z,99402.38
2023-12-03T06:30:18.771Z,99398.03
2023-12-03T06:32:46.660Z,99408.88
2023-12-03T06:35:15.682Z,99405.31
2023-12-03T06:37:43.506Z,99399.88
2023-12-03T06:40:12.685Z,99403.66
2023-12-03T06:42:41.900Z,99393.78
2023-12-03T06:45:10.634Z,99401.69
2023-12-03T06:47:38.449Z,99400.19
2023-12-03T06:50:07.321Z,99405.56
2023-12-03T06:52:35.135Z,99406.16
2023-12-03T06:55:02.988Z,99412.81
2023-12-03T06:57:30.934Z,99417.69
2023-12-03T07:00:00.322Z,99423.53
2023-12-03T07:02:28.117Z,99428.53
2023-12-03T07:04:55.961Z,99427.56
2023-12-03T07:07:23.833Z,99434.22
2023-12-03T07:09:51.770Z,99430.75
2023-12-03T07:12:19.608Z,99437.00
2023-12-03T07:14:47.416Z,99440.34
2023-12-03T07:17:16.614Z,99448.78
2023-12-03T07:19:45.215Z,99447.97
2023-12-03T07:22:13.623Z,99452.28
2023-12-03T07:24:42.176Z,99448.53
2023-12-03T07:27:09.999Z,99452.53
2023-12-03T07:29:38.199Z,99451.06
2023-12-03T07:32:06.905Z,99450.59
2023-12-03T07:34:36.114Z,99449.25
2023-12-03T07:37:04.675Z,99457.28
2023-12-03T07:39:32.599Z,99460.91
2023-12-03T07:42:00.423Z,99459.16
2023-12-03T07:44:28.265Z,99455.44
2023-12-03T07:46:58.894Z,99455.84
2023-12-03T07:49:26.844Z,99457.34
2023-12-03T07:51:56.158Z,99473.94
2023-12-03T07:54:24.056Z,99466.50
2023-12-03T07:56:51.916Z,99476.25
2023-12-03T07:59:19.740Z,99483.31
2023-12-03T08:01:48.560Z,99483.25
2023-12-03T08:04:16.512Z,99475.63
2023-12-03T08:06:44.542Z,99486.88
2023-12-03T08:09:13.944Z,99479.56
2023-12-03T08:11:41.808Z,99475.31
2023-12-03T08:14:09.682Z,99480.31
2023-12-03T08:16:37.461Z,99479.13
2023-12-03T08:19:05.324Z,99482.94
2023-12-03T08:21:35.147Z,99481.94
2023-12-03T08:24:02.990Z,99483.31
2023-12-03T08:26:32.178Z,99485.47
2023-12-03T08:29:00.024Z,99487.31
2023-12-03T08:31:28.705Z,99482.03
2023-12-03T08:33:56.614Z,99480.72
2023-12-03T08:36:24.582Z,99482.28
2023-12-03T08:38:52.341Z,99483.00
2023-12-03T08:41:20.145Z,99470.75
2023-12-03T08:43:49.646Z,99477.75
2023-12-03T08:46:17.551Z,99475.34
2023-12-03T08:48:46.379Z,99485.56
2023-12-03T08:51:14.356Z,99493.09
2023-12-03T08:53:42.385Z,99489.56
2023-12-03T08:56:12.936Z,99498.84
2023-12-03T08:58:40.939Z,99491.41
2023-12-03T09:01:10.468Z,99488.94
2023-12-03T09:03:41.392Z,99499.13
2023-12-03T09:06:10.627Z,99492.84
2023-12-03T09:08:40.834Z,99490.06
2023-12-03T09:11:10.258Z,99488.88
2023-12-03T09:13:38.126Z,99487.47
2023-12-03T09:16:07.007Z,99482.94
2023-12-03T09:18:39.559Z,99484.47
2023-12-03T09:21:09.256Z,99481.34
2023-12-03T09:23:37.641Z,99468.72
2023-12-03T09:26:05.845Z,99472.41
2023-12-03T09:28:35.492Z,99476.56
2023-12-03T09:31:03.703Z,99466.38
2023-12-03T09:33:31.713Z,99469.13
2023-12-03T09:36:01.324Z,99467.94
2023-12-03T09:38:29.248Z,99468.91
2023-12-03T09:41:02.149Z,99465.88
2023-12-03T09:43:33.271Z,99472.00
2023-12-03T09:46:03.091Z,99471.28
2023-12-03T09:48:34.416Z,99473.81
2023-12-03T09:51:04.973Z,99468.13
2023-12-03T09:53:35.096Z,99474.78
2023-12-03T09:56:03.568Z,99479.22
2023-12-03T09:58:31.697Z,99478.34
2023-12-03T10:01:02.254Z,99472.75
2023-12-03T10:03:30.146Z,99477.34
2023-12-03T10:05:58.036Z,99476.28
2023-12-03T10:08:28.186Z,99474.34
2023-12-03T10:11:01.014Z,99468.94
2023-12-03T10:13:29.611Z,99462.91
2023-12-03T10:15:58.039Z,99463.16
2023-12-03T10:18:26.103Z,99466.28
2023-12-03T10:21:07.187Z,99466.78
2023-12-03T10:23:37.155Z,99465.00
2023-12-03T10:26:12.443Z,99458.78
2023-12-03T10:28:40.684Z,99463.28
2023-12-03T10:31:13.222Z,99471.81
2023-12-03T10:33:41.183Z,99468.75
2023-12-03T10:36:10.739Z,99475.47
2023-12-03T10:38:41.146Z,99468.50
2023-12-03T10:41:09.967Z,99468.56
2023-12-03T10:43:39.833Z,99466.31
2023-12-03T10:46:08.439Z,99459.19
2023-12-03T10:48:36.931Z,99452.66
2023-12-03T10:51:07.062Z,99452.00
2023-12-03T10:53:35.946Z,99438.94
2023-12-03T10:56:07.356Z,99436.41
2023-12-03T10:58:38.287Z,99439.38
2023-12-03T11:01:10.552Z,99439.41
2023-12-03T11:03:57.149Z,99435.06
2023-12-03T11:06:26.095Z,99450.22
2023-12-03T11:08:57.807Z,99436.97
2023-12-03T11:11:27.051Z,99446.38
2023-12-03T11:13:57.815Z,99447.88
2023-12-03T11:16:29.623Z,99443.06
2023-12-03T11:19:01.348Z,99444.63
2023-12-03T11:21:39.520Z,99444.53
2023-12-03T11:24:23.989Z,99428.47
2023-12-03T11:26:53.293Z,99416.94
2023-12-03T11:29:47.551Z,99422.81
2023-12-03T11:32:15.486Z,99418.72
2023-12-03T11:34:43.570Z,99415.13
2023-12-03T11:37:12.117Z,99414.59
2023-12-03T11:39:44.276Z,99413.94
2023-12-03T11:42:14.474Z,99412.53
2023-12-03T11:44:42.774Z,99414.66
2023-12-03T11:47:13.305Z,99415.31
2023-12-03T11:49:42.310Z,99400.63
2023-12-03T11:52:10.680Z,99396.19
2023-12-03T11:54:45.422Z,99391.25
2023-12-03T11:57:16.040Z,99388.22
2023-12-03T11:59:45.085Z,99388.53
2023-12-03T12:02:13.381Z,99394.88
2023-12-03T12:04:41.478Z,99386.53
2023-12-03T12:07:17.222Z,99384.16
2023-12-03T12:09:45.456Z,99379.34
2023-12-03T12:12:15.853Z,99374.72
2023-12-03T12:14:43.699Z,99373.75
2023-12-03T12:17:11.705Z,99374.56
2023-12-03T12:19:46.852Z,99372.56
2023-12-03T12:22:14.894Z,99372.56
2023-12-03T12:24:42.868Z,99367.44
2023-12-03T12:27:10.620Z,99362.94
2023-12-03T12:29:41.950Z,99360.06
2023-12-03T12:32:09.877Z,99356.09
2023-12-03T12:34:37.858Z,99360.22
2023-12-03T12:37:06.895Z,99359.50
2023-12-03T12:39:37.795Z,99354.75
2023-12-03T12:42:06.546Z,99359.69
2023-12-03T12:44:46.848Z,99351.53
2023-12-03T12:47:18.418Z,99358.31
2023-12-03T12:49:53.194Z,99352.38
2023-12-03T12:52:23.074Z,99350.63
2023-12-03T12:54:51.872Z,99355.84
2023-12-03T12:57:21.305Z,99356.56
2023-12-03T12:59:53.509Z,99346.78
2023-12-03T13:02:23.430Z,99361.19
2023-12-03T13:04:52.166Z,99356.56
2023-12-03T13:07:19.948Z,99364.66
2023-12-03T13:09:49.129Z,99352.31
2023-12-03T13:12:17.445Z,99359.88
2023-12-03T13:14:45.349Z,99355.38
2023-12-03T13:17:14.577Z,99352.31
2023-12-03T13:19:42.460Z,99363.94
2023-12-03T13:22:09.364Z,99351.88
2023-12-03T13:24:37.366Z,99355.81
2023-12-03T13:27:06.021Z,99348.16
2023-12-03T13:29:33.826Z,99343.34
2023-12-03T13:32:01.664Z,99341.69
2023-12-03T13:34:31.624Z,99338.13
2023-12-03T13:36:59.650Z,99345.38
2023-12-03T13:39:27.566Z,99347.16
2023-12-03T13:41:55.365Z,99346.75
2023-12-03T13:44:23.221Z,99346.94
2023-12-03T13:46:57.523Z,99337.47
2023-12-03T13:49:25.749Z,99337.47
2023-12-03T13:51:56.029Z,99341.22
2023-12-03T13:54:24.031Z,99336.66
2023-12-03T13:56:52.460Z,99341.47
2023-12-03T13:59:20.465Z,99324.53
2023-12-03T14:01:48.394Z,99332.81
2023-12-03T14:04:16.378Z,99318.31
2023-12-03T14:06:44.269Z,99328.44
2023-12-03T14:09:16.234Z,99319.63
2023-12-03T14:11:44.367Z,99319.03
2023-12-03T14:14:12.708Z,99315.69
2023-12-03T14:16:40.516Z,99318.50
2023-12-03T14:19:11.867Z,99315.91
2023-12-03T14:21:42.756Z,99315.94
2023-12-03T14:24:11.640Z,99313.53
2023-12-03T14:26:42.718Z,99306.25
2023-12-03T14:29:10.819Z,99301.56
2023-12-03T14:31:39.062Z,99296.47
2023-12-03T14:34:07.329Z,99301.41
2023-12-03T14:36:35.444Z,99309.09
2023-12-03T14:39:03.758Z,99308.38
2023-12-03T14:41:31.555Z,99309.81
2023-12-03T14:44:01.068Z,99307.34
2023-12-03T14:46:29.071Z,99307.09
2023-12-03T14:48:57.367Z,99312.09
2023-12-03T14:51:26.603Z,99310.63
2023-12-03T14:53:54.609Z,99305.53
2023-12-03T14:56:23.334Z,99310.44
2023-12-03T14:58:51.712Z,99317.00
2023-12-03T15:01:23.673Z,99319.06
2023-12-03T15:03:52.102Z,99322.78
2023-12-03T15:06:20.112Z,99316.50
2023-12-03T15:08:48.548Z,99314.97
2023-12-03T15:11:16.608Z,99318.09
2023-12-03T15:13:45.990Z,99319.75
2023-12-03T15:16:14.248Z,99316.72
2023-12-03T15:18:43.937Z,99319.72
2023-12-03T15:21:12.196Z,99318.75
2023-12-03T15:23:41.180Z,99317.72
2023-12-03T15:26:11.317Z,99313.38
2023-12-03T15:28:39.561Z,99306.63
2023-12-03T15:31:08.439Z,99311.88
2023-12-03T15:33:37.179Z,99306.22
2023-12-03T15:36:07.896Z,99310.38
2023-12-03T15:38:35.840Z,99302.53
2023-12-03T15:41:03.772Z,99307.72
2023-12-03T15:43:37.366Z,99298.84
2023-12-03T15:46:09.604Z,99294.03
2023-12-03T15:48:37.794Z,99291.53
2023-12-03T15:51:08.265Z,99294.31
2023-12-03T15:53:36.323Z,99301.72
2023-12-03T15:56:04.765Z,99306.84
2023-12-03T15:58:32.651Z,99305.59
2023-12-03T16:01:00.889Z,99309.63
2023-12-03T16:03:28.839Z,99303.31
2023-12-03T16:05:57.604Z,99303.41
2023-12-03T16:08:26.764Z,99307.03
2023-12-03T16:10:55.418Z,99309.94
2023-12-03T16:13:23.166Z,99308.44
2023-12-03T16:15:50.983Z,99313.03
2023-12-03T16:18:19.105Z,99313.69
2023-12-03T16:20:47.046Z,99309.13
2023-12-03T16:23:15.039Z,99301.72
2023-12-03T16:25:44.190Z,99306.47
2023-12-03T16:28:12.042Z,99308.50
2023-12-03T16:30:40.257Z,99299.69
2023-12-03T16:33:09.699Z,99299.63
2023-12-03T16:35:37.733Z,99305.13
2023-12-03T16:38:05.860Z,99302.25
2023-12-03T16:40:34.204Z,99314.16
2023-12-03T16:43:04.537Z,99321.25
2023-12-03T16:45:32.519Z,99314.56
2023-12-03T16:48:00.816Z,99301.25
2023-12-03T16:50:28.661Z,99304.03
2023-12-03T16:52:59.764Z,99290.88
2023-12-03T16:55:27.991Z,99302.59
2023-12-03T16:57:55.909Z,99302.50
2023-12-03T17:00:25.209Z,99300.28
2023-12-03T17:02:53.182Z,99300.03
2023-12-03T17:05:21.064Z,99295.16
2023-12-03T17:07:49.012Z,99297.38
2023-12-03T17:10:19.173Z,99293.81
2023-12-03T17:12:55.191Z,99298.38
2023-12-03T17:15:31.531Z,99293.06
2023-12-03T17:18:01.155Z,99303.28
2023-12-03T17:20:29.500Z,99300.38
2023-12-03T17:22:58.753Z,99312.03
2023-12-03T17:25:26.678Z,99309.44
2023-12-03T17:27:55.558Z,99316.84
2023-12-03T17:30:23.670Z,99308.44
2023-12-03T17:32:52.982Z,99313.06
2023-12-03T17:35:20.895Z,99305.25
2023-12-03T17:37:48.880Z,99299.25
2023-12-03T17:40:17.295Z,99292.59
2023-12-03T17:42:45.918Z,99291.78
2023-12-03T17:45:14.532Z,99295.94
2023-12-03T17:47:43.064Z,99300.75
2023-12-03T17:50:12.526Z,99302.59
2023-12-03T17:52:41.038Z,99302.81
2023-12-03T17:55:09.676Z,99301.66
2023-12-03T17:57:37.767Z,99293.63
2023-12-03T18:00:10.071Z,99297.59
2023-12-03T18:02:43.166Z,99285.94
2023-12-03T18:05:14.722Z,99290.78
2023-12-03T18:07:45.345Z,99291.53
2023-12-03T18:10:14.080Z,99282.63
2023-12-03T18:12:41.938Z,99273.25
2023-12-03T18:15:10.724Z,99281.31
2023-12-03T18:17:40.711Z,99272.00
2023-12-03T18:20:10.095Z,99270.06
2023-12-03T18:22:39.503Z,99272.41
2023-12-03T18:25:07.826Z,99274.50
2023-12-03T18:27:35.635Z,99275.72
2023-12-03T18:30:03.733Z,99270.78
2023-12-03T18:32:31.703Z,99274.16
2023-12-03T18:34:59.706Z,99271.50
2023-12-03T18:37:27.579Z,99276.06
2023-12-03T18:39:56.998Z,99278.53
2023-12-03T18:42:24.945Z,99272.72
2023-12-03T18:44:52.778Z,99275.06
2023-12-03T18:47:20.625Z,99270.22
2023-12-03T18:49:48.512Z,99270.78
2023-12-03T18:52:16.751Z,99266.78
2023-12-03T18:54:44.836Z,99259.44
2023-12-03T18:57:17.028Z,99259.53
2023-12-03T18:59:46.396Z,99256.50
2023-12-03T19:02:14.559Z,99252.50
2023-12-03T19:04:42.476Z,99250.22
2023-12-03T19:07:10.337Z,99249.34
2023-12-03T19:09:38.216Z,99248.84
2023-12-03T19:12:07.823Z,99247.47
2023-12-03T19:14:37.159Z,99245.63
2023-12-03T19:17:05.530Z,99242.06
2023-12-03T19:19:33.400Z,99227.09
2023-12-03T19:22:02.036Z,99227.00
2023-12-03T19:24:29.963Z,99228.69
2023-12-03T19:26:58.519Z,99215.66
2023-12-03T19:29:26.325Z,99213.94
2023-12-03T19:31:56.358Z,99214.69
2023-12-03T19:34:24.260Z,99206.47
2023-12-03T19:36:55.578Z,99209.69
2023-12-03T19:39:23.394Z,99213.19
2023-12-03T19:41:56.631Z,99205.47
2023-12-03T19:44:24.435Z,99205.34
2023-12-03T19:46:54.183Z,99198.06
2023-12-03T19:49:23.447Z,99206.75
2023-12-03T19:51:51.393Z,99206.00
2023-12-03T19:54:19.202Z,99193.44
2023-12-03T19:56:47.092Z,99185.84
2023-12-03T19:59:15.036Z,99183.25
2023-12-03T20:01:42.896Z,99177.56
2023-12-03T20:04:10.724Z,99180.56
2023-12-03T20:06:40.183Z,99173.78
2023-12-03T20:09:08.325Z,99178.75
2023-12-03T20:11:36.485Z,99174.47
2023-12-03T20:14:04.575Z,99171.63
2023-12-03T20:16:35.324Z,99163.38
2023-12-03T20:19:05.174Z,99163.28
2023-12-03T20:21:33.150Z,99158.56
2023-12-03T20:24:02.383Z,99160.06
2023-12-03T20:26:30.202Z,99153.25
2023-12-03T20:38:10.318Z,99158.38
2023-12-03T20:56:03.109Z,99130.88
2023-12-03T22:31:15.461Z,99023.09
2023-12-03T23:59:54.161Z,98921.63
